createdAt,value
2023-12-18T00:00:24.166Z,3.50
2023-12-18T00:01:24.131Z,4.00
2023-12-18T00:02:24.110Z,3.80
2023-12-18T00:03:24.169Z,3.50
2023-12-18T00:04:24.107Z,3.50
2023-12-18T00:05:24.101Z,3.40
2023-12-18T00:06:24.072Z,4.00
2023-12-18T00:07:24.038Z,3.30
2023-12-18T00:08:24.030Z,3.70
2023-12-18T00:09:24.050Z,3.30
2023-12-18T00:10:24.000Z,3.40
2023-12-18T00:11:23.996Z,3.20
2023-12-18T00:12:24.004Z,3.20
2023-12-18T00:13:23.970Z,3.90
2023-12-18T00:14:23.997Z,3.70
2023-12-18T00:15:23.978Z,3.60
2023-12-18T00:16:23.938Z,3.30
2023-12-18T00:17:23.963Z,3.80
2023-12-18T00:18:23.993Z,3.90
2023-12-18T00:19:24.179Z,3.10
2023-12-18T00:20:23.941Z,3.30
2023-12-18T00:21:23.920Z,3.50
2023-12-18T00:22:23.875Z,3.30
2023-12-18T00:23:23.865Z,3.50
2023-12-18T00:24:23.940Z,3.00
2023-12-18T00:25:23.838Z,3.40
2023-12-18T00:26:23.851Z,3.60
2023-12-18T00:27:23.879Z,3.70
2023-12-18T00:28:23.807Z,3.20
2023-12-18T00:29:23.820Z,3.30
2023-12-18T00:30:23.855Z,4.00
2023-12-18T00:31:23.855Z,3.80
2023-12-18T00:32:23.777Z,3.30
2023-12-18T00:33:23.845Z,3.30
2023-12-18T00:34:23.779Z,3.10
2023-12-18T00:35:23.761Z,3.90
2023-12-18T00:36:23.761Z,3.80
2023-12-18T00:37:23.711Z,3.90
2023-12-18T00:38:23.696Z,3.70
2023-12-18T00:39:23.724Z,3.60
2023-12-18T00:40:23.673Z,3.80
2023-12-18T00:41:23.665Z,4.50
2023-12-18T00:42:23.699Z,3.90
2023-12-18T00:43:23.642Z,3.80
2023-12-18T00:44:23.629Z,4.60
2023-12-18T00:45:23.679Z,3.90
2023-12-18T00:46:23.614Z,4.20
2023-12-18T00:47:23.614Z,3.60
2023-12-18T00:48:23.677Z,4.10
2023-12-18T00:49:23.757Z,3.80
2023-12-18T00:50:23.635Z,4.50
2023-12-18T00:51:23.628Z,4.40
2023-12-18T00:52:23.540Z,4.10
2023-12-18T00:53:23.543Z,3.80
2023-12-18T00:54:23.641Z,4.30
2023-12-18T00:55:23.573Z,4.90
2023-12-18T00:56:23.504Z,4.30
2023-12-18T00:57:23.511Z,5.00
2023-12-18T00:58:23.480Z,4.30
2023-12-18T00:59:23.498Z,4.40
2023-12-18T01:00:23.516Z,4.80
2023-12-18T01:01:23.464Z,4.00
2023-12-18T01:02:23.432Z,4.60
2023-12-18T01:03:23.480Z,5.30
2023-12-18T01:04:23.505Z,4.60
2023-12-18T01:05:23.437Z,5.30
2023-12-18T01:06:23.424Z,5.10
2023-12-18T01:07:23.384Z,4.90
2023-12-18T01:08:23.370Z,5.20
2023-12-18T01:09:23.424Z,5.30
2023-12-18T01:10:23.349Z,4.80
2023-12-18T01:11:23.338Z,4.90
2023-12-18T01:12:23.336Z,5.40
2023-12-18T01:13:23.318Z,5.90
2023-12-18T01:14:23.302Z,5.30
2023-12-18T01:15:23.328Z,5.80
2023-12-18T01:16:23.282Z,5.20
2023-12-18T01:17:30.447Z,5.20
2023-12-18T01:18:23.348Z,5.90
2023-12-18T01:19:23.439Z,4.80
2023-12-18T01:20:23.258Z,5.30
2023-12-18T01:21:23.280Z,4.40
2023-12-18T01:22:23.218Z,4.90
2023-12-18T01:23:23.204Z,5.60
2023-12-18T01:24:23.212Z,5.70
2023-12-18T01:25:23.192Z,5.70
2023-12-18T01:26:23.168Z,5.90
2023-12-18T01:27:23.222Z,6.00
2023-12-18T01:28:23.158Z,5.60
2023-12-18T01:29:23.165Z,6.10
2023-12-18T01:30:23.193Z,6.10
2023-12-18T01:31:23.261Z,5.50
2023-12-18T01:32:23.166Z,5.20
2023-12-18T01:33:23.180Z,6.50
2023-12-18T01:34:23.207Z,5.80
2023-12-18T01:35:29.917Z,5.80
2023-12-18T01:36:23.163Z,5.70
2023-12-18T01:37:23.051Z,6.30
2023-12-18T01:38:23.046Z,5.50
2023-12-18T01:39:23.177Z,6.00
2023-12-18T01:40:23.042Z,5.50
2023-12-18T01:41:23.018Z,7.00
2023-12-18T01:42:23.043Z,6.40
2023-12-18T01:43:22.996Z,5.60
2023-12-18T01:44:22.999Z,6.20
2023-12-18T01:45:23.019Z,6.00
2023-12-18T01:46:22.977Z,6.70
2023-12-18T01:47:22.956Z,5.90
2023-12-18T01:48:23.047Z,6.30
2023-12-18T01:49:23.044Z,6.10
2023-12-18T01:50:22.933Z,6.50
2023-12-18T01:51:22.937Z,6.10
2023-12-18T01:52:22.888Z,5.90
2023-12-18T01:53:22.888Z,6.20
2023-12-18T01:54:22.920Z,5.50
2023-12-18T01:55:22.882Z,6.60
2023-12-18T01:56:22.849Z,5.80
2023-12-18T01:57:22.866Z,6.40
2023-12-18T01:58:22.821Z,5.50
2023-12-18T01:59:22.852Z,6.70
2023-12-18T02:00:22.847Z,6.50
2023-12-18T02:01:22.888Z,6.10
2023-12-18T02:02:22.777Z,6.60
2023-12-18T02:03:22.837Z,6.30
2023-12-18T02:04:22.859Z,6.20
2023-12-18T02:05:22.792Z,6.00
2023-12-18T02:06:22.837Z,6.50
2023-12-18T02:07:22.724Z,7.10
2023-12-18T02:08:22.713Z,6.30
2023-12-18T02:09:22.733Z,5.70
2023-12-18T02:10:22.696Z,6.30
2023-12-18T02:11:22.732Z,6.40
2023-12-18T02:12:22.727Z,5.90
2023-12-18T02:13:22.662Z,6.70
2023-12-18T02:14:22.653Z,6.60
2023-12-18T02:15:22.684Z,6.70
2023-12-18T02:16:22.621Z,6.60
2023-12-18T02:17:22.651Z,6.20
2023-12-18T02:18:22.754Z,6.20
2023-12-18T02:19:22.684Z,5.60
2023-12-18T02:20:22.596Z,6.00
2023-12-18T02:21:22.687Z,6.60
2023-12-18T02:22:22.575Z,6.00
2023-12-18T02:23:22.556Z,6.60
2023-12-18T02:24:22.576Z,6.40
2023-12-18T02:25:22.596Z,6.00
2023-12-18T02:26:22.534Z,6.40
2023-12-18T02:27:22.541Z,6.40
2023-12-18T02:28:22.504Z,6.50
2023-12-18T02:29:22.488Z,5.90
2023-12-18T02:30:22.549Z,6.60
2023-12-18T02:31:22.638Z,6.70
2023-12-18T02:32:22.475Z,6.30
2023-12-18T02:33:22.528Z,5.50
2023-12-18T02:34:22.560Z,6.00
2023-12-18T02:35:22.502Z,6.30
2023-12-18T02:36:22.440Z,6.00
2023-12-18T02:37:22.511Z,6.00
2023-12-18T02:38:22.396Z,6.30
2023-12-18T02:39:22.408Z,6.50
2023-12-18T02:40:22.402Z,6.20
2023-12-18T02:41:22.358Z,6.10
2023-12-18T02:42:22.399Z,6.00
2023-12-18T02:43:22.358Z,6.20
2023-12-18T02:44:22.334Z,5.80
2023-12-18T02:45:22.392Z,5.90
2023-12-18T02:46:22.295Z,7.00
2023-12-18T02:47:22.334Z,5.70
2023-12-18T02:48:22.425Z,6.30
2023-12-18T02:49:22.329Z,6.10
2023-12-18T02:50:22.251Z,6.30
2023-12-18T02:51:22.317Z,5.80
2023-12-18T02:52:22.235Z,6.60
2023-12-18T02:53:22.220Z,6.40
2023-12-18T02:54:22.248Z,6.30
2023-12-18T02:55:22.237Z,5.90
2023-12-18T02:56:22.205Z,6.20
2023-12-18T02:57:22.227Z,6.70
2023-12-18T02:58:22.167Z,6.70
2023-12-18T02:59:22.165Z,5.90
2023-12-18T03:00:22.174Z,5.70
2023-12-18T03:01:22.225Z,5.90
2023-12-18T03:02:22.121Z,6.10
2023-12-18T03:03:22.262Z,6.00
2023-12-18T03:04:22.138Z,6.00
2023-12-18T03:05:22.093Z,5.80
2023-12-18T03:06:22.124Z,5.40
2023-12-18T03:07:22.089Z,5.90
2023-12-18T03:08:22.055Z,4.70
2023-12-18T03:09:22.136Z,5.80
2023-12-18T03:10:22.054Z,6.10
2023-12-18T03:11:22.032Z,6.20
2023-12-18T03:12:22.056Z,5.80
2023-12-18T03:13:22.163Z,6.00
2023-12-18T03:14:22.031Z,6.40
2023-12-18T03:15:22.111Z,6.20
2023-12-18T03:16:22.027Z,6.50
2023-12-18T03:17:21.980Z,6.10
2023-12-18T03:18:22.100Z,6.30
2023-12-18T03:19:22.041Z,6.50
2023-12-18T03:20:21.938Z,6.20
2023-12-18T03:21:22.044Z,6.30
2023-12-18T03:22:21.929Z,6.30
2023-12-18T03:23:21.894Z,5.60
2023-12-18T03:24:23.808Z,5.60
2023-12-18T03:25:21.875Z,6.00
2023-12-18T03:26:21.857Z,5.90
2023-12-18T03:27:21.936Z,6.30
2023-12-18T03:28:21.864Z,6.70
2023-12-18T03:29:21.871Z,6.10
2023-12-18T03:30:21.952Z,6.50
2023-12-18T03:31:21.877Z,6.10
2023-12-18T03:32:21.810Z,6.10
2023-12-18T03:33:21.948Z,5.90
2023-12-18T03:34:21.832Z,5.50
2023-12-18T03:35:21.764Z,6.00
2023-12-18T03:36:21.795Z,6.50
2023-12-18T03:37:21.741Z,6.30
2023-12-18T03:38:21.733Z,6.20
2023-12-18T03:39:21.817Z,6.40
2023-12-18T03:40:21.703Z,6.60
2023-12-18T03:41:21.710Z,6.00
2023-12-18T03:42:21.704Z,6.70
2023-12-18T03:43:21.678Z,6.10
2023-12-18T03:44:21.662Z,6.20
2023-12-18T03:45:21.716Z,5.60
2023-12-18T03:46:21.648Z,6.30
2023-12-18T03:47:21.637Z,5.60
2023-12-18T03:48:21.780Z,6.30
2023-12-18T03:49:21.741Z,6.10
2023-12-18T03:50:21.610Z,6.30
2023-12-18T03:51:21.664Z,5.90
2023-12-18T03:52:21.591Z,6.00
2023-12-18T03:53:21.565Z,6.30
2023-12-18T03:54:21.584Z,6.30
2023-12-18T03:55:21.582Z,6.40
2023-12-18T03:56:21.540Z,6.20
2023-12-18T03:57:21.540Z,5.40
2023-12-18T03:58:21.520Z,6.50
2023-12-18T03:59:21.500Z,6.10
2023-12-18T04:00:21.510Z,5.30
2023-12-18T04:01:21.527Z,6.10
2023-12-18T04:02:21.465Z,5.80
2023-12-18T04:03:21.511Z,5.20
2023-12-18T04:04:21.530Z,6.20
2023-12-18T04:05:21.497Z,6.30
2023-12-18T04:06:21.451Z,6.20
2023-12-18T04:07:21.439Z,5.70
2023-12-18T04:08:21.409Z,6.30
2023-12-18T04:09:21.434Z,6.10
2023-12-18T04:10:21.402Z,6.60
2023-12-18T04:11:21.373Z,6.30
2023-12-18T04:12:21.393Z,6.00
2023-12-18T04:13:21.372Z,6.50
2023-12-18T04:14:21.354Z,6.40
2023-12-18T04:15:21.362Z,5.80
2023-12-18T04:16:21.344Z,6.30
2023-12-18T04:17:21.338Z,5.90
2023-12-18T04:18:21.402Z,6.50
2023-12-18T04:19:21.544Z,6.30
2023-12-18T04:20:21.271Z,6.50
2023-12-18T04:21:21.344Z,6.70
2023-12-18T04:22:21.249Z,5.60
2023-12-18T04:23:21.240Z,6.70
2023-12-18T04:24:21.329Z,6.30
2023-12-18T04:25:21.246Z,7.10
2023-12-18T04:26:21.213Z,6.00
2023-12-18T04:27:21.258Z,6.10
2023-12-18T04:28:21.182Z,5.80
2023-12-18T04:29:21.173Z,6.00
2023-12-18T04:30:21.263Z,6.30
2023-12-18T04:31:21.348Z,6.60
2023-12-18T04:32:21.172Z,7.10
2023-12-18T04:33:21.229Z,5.90
2023-12-18T04:34:21.232Z,6.50
2023-12-18T04:35:21.107Z,5.50
2023-12-18T04:36:21.108Z,6.50
2023-12-18T04:37:21.149Z,6.40
2023-12-18T04:38:21.113Z,6.30
2023-12-18T04:39:21.092Z,6.20
2023-12-18T04:40:21.112Z,6.50
2023-12-18T04:41:21.050Z,6.20
2023-12-18T04:42:21.120Z,6.40
2023-12-18T04:43:21.019Z,6.00
2023-12-18T04:44:21.013Z,6.80
2023-12-18T04:45:21.008Z,6.90
2023-12-18T04:46:20.987Z,6.20
2023-12-18T04:47:20.980Z,6.30
2023-12-18T04:48:21.125Z,6.50
2023-12-18T04:49:21.050Z,6.50
2023-12-18T04:50:20.966Z,6.20
2023-12-18T04:51:20.959Z,6.30
2023-12-18T04:52:21.137Z,7.20
2023-12-18T04:53:20.918Z,6.60
2023-12-18T04:54:20.943Z,5.90
2023-12-18T04:55:20.886Z,7.00
2023-12-18T04:56:20.925Z,6.00
2023-12-18T04:57:20.892Z,6.20
2023-12-18T04:58:20.892Z,6.50
2023-12-18T04:59:20.842Z,6.80
2023-12-18T05:00:20.851Z,6.60
2023-12-18T05:01:20.860Z,6.00
2023-12-18T05:02:20.830Z,5.50
2023-12-18T05:03:20.896Z,6.60
2023-12-18T05:04:20.852Z,6.60
2023-12-18T05:05:20.808Z,6.50
2023-12-18T05:06:20.884Z,6.30
2023-12-18T05:07:20.756Z,5.90
2023-12-18T05:08:20.755Z,6.40
2023-12-18T05:09:20.759Z,7.30
2023-12-18T05:10:20.774Z,7.40
2023-12-18T05:11:20.719Z,5.70
2023-12-18T05:12:20.713Z,6.50
2023-12-18T05:13:20.695Z,6.00
2023-12-18T05:14:20.683Z,6.70
2023-12-18T05:15:20.712Z,6.60
2023-12-18T05:16:20.697Z,6.80
2023-12-18T05:17:20.652Z,6.50
2023-12-18T05:18:20.766Z,6.30
2023-12-18T05:19:20.663Z,7.30
2023-12-18T05:20:20.622Z,7.20
2023-12-18T05:21:20.679Z,6.30
2023-12-18T05:22:20.628Z,7.00
2023-12-18T05:23:20.589Z,6.60
2023-12-18T05:24:20.614Z,7.10
2023-12-18T05:25:20.583Z,6.90
2023-12-18T05:26:20.560Z,7.30
2023-12-18T05:27:20.549Z,6.90
2023-12-18T05:28:20.897Z,7.30
2023-12-18T05:29:20.775Z,7.60
2023-12-18T05:30:20.727Z,6.70
2023-12-18T05:31:20.650Z,7.50
2023-12-18T05:32:20.488Z,7.40
2023-12-18T05:33:20.624Z,7.00
2023-12-18T05:34:20.636Z,6.90
2023-12-18T05:35:20.466Z,6.90
2023-12-18T05:36:20.466Z,7.40
2023-12-18T05:37:20.435Z,6.70
2023-12-18T05:38:20.511Z,7.00
2023-12-18T05:39:20.464Z,6.70
2023-12-18T05:40:20.433Z,6.60
2023-12-18T05:41:20.393Z,7.30
2023-12-18T05:42:20.518Z,7.80
2023-12-18T05:43:20.367Z,7.60
2023-12-18T05:44:20.383Z,8.10
2023-12-18T05:45:20.494Z,7.90
2023-12-18T05:46:20.363Z,8.20
2023-12-18T05:47:20.934Z,8.20
2023-12-18T05:48:20.436Z,8.10
2023-12-18T05:49:20.572Z,8.00
2023-12-18T05:50:20.382Z,8.00
2023-12-18T05:51:20.539Z,7.10
2023-12-18T05:52:20.848Z,7.90
2023-12-18T05:53:20.784Z,7.30
2023-12-18T05:54:21.059Z,8.10
2023-12-18T05:55:20.796Z,7.80
2023-12-18T05:56:22.661Z,7.90
2023-12-18T05:57:20.605Z,7.10
2023-12-18T05:58:20.717Z,8.70
2023-12-18T05:59:21.020Z,7.80
2023-12-18T06:00:21.815Z,7.80
2023-12-18T06:01:26.528Z,8.00
2023-12-18T06:02:23.025Z,7.90
2023-12-18T06:03:20.408Z,8.40
2023-12-18T06:04:20.447Z,7.50
2023-12-18T06:05:20.625Z,7.60
2023-12-18T06:06:21.081Z,7.90
2023-12-18T06:07:20.503Z,8.70
2023-12-18T06:08:22.346Z,7.90
2023-12-18T06:09:20.276Z,8.30
2023-12-18T06:10:21.611Z,9.00
2023-12-18T06:11:22.044Z,8.70
2023-12-18T06:12:20.825Z,8.10
2023-12-18T06:13:21.491Z,8.60
2023-12-18T06:14:20.922Z,9.10
2023-12-18T06:15:20.231Z,8.10
2023-12-18T06:16:20.318Z,8.40
2023-12-18T06:17:20.220Z,8.00
2023-12-18T06:18:20.330Z,8.40
2023-12-18T06:19:20.511Z,8.50
2023-12-18T06:20:19.968Z,9.10
2023-12-18T06:21:20.419Z,8.90
2023-12-18T06:22:20.100Z,9.80
2023-12-18T06:23:19.942Z,9.30
2023-12-18T06:24:19.990Z,9.30
2023-12-18T06:25:19.906Z,9.10
2023-12-18T06:26:19.923Z,9.40
2023-12-18T06:27:20.230Z,9.00
2023-12-18T06:28:19.895Z,9.10
2023-12-18T06:29:19.973Z,9.40
2023-12-18T06:30:19.905Z,9.90
2023-12-18T06:31:19.983Z,9.10
2023-12-18T06:32:19.914Z,8.70
2023-12-18T06:33:20.012Z,9.40
2023-12-18T06:34:20.040Z,9.30
2023-12-18T06:35:20.338Z,9.20
2023-12-18T06:36:19.819Z,10.30
2023-12-18T06:37:19.788Z,9.40
2023-12-18T06:38:19.834Z,9.40
2023-12-18T06:39:19.769Z,9.50
2023-12-18T06:40:19.775Z,10.30
2023-12-18T06:41:19.738Z,10.00
2023-12-18T06:42:19.788Z,10.20
2023-12-18T06:43:19.758Z,10.50
2023-12-18T06:44:19.706Z,9.60
2023-12-18T06:45:19.728Z,9.50
2023-12-18T06:46:19.756Z,9.80
2023-12-18T06:47:19.726Z,10.30
2023-12-18T06:48:19.773Z,10.20
2023-12-18T06:49:19.712Z,9.70
2023-12-18T06:50:19.639Z,10.10
2023-12-18T06:51:19.690Z,10.60
2023-12-18T06:52:19.671Z,10.20
2023-12-18T06:53:19.606Z,10.00
2023-12-18T06:54:19.849Z,9.70
2023-12-18T06:55:19.882Z,10.50
2023-12-18T06:56:19.588Z,11.20
2023-12-18T06:57:19.751Z,10.70
2023-12-18T06:58:19.894Z,10.00
2023-12-18T06:59:19.539Z,9.40
2023-12-18T07:00:21.754Z,10.30
2023-12-18T07:01:20.002Z,10.60
2023-12-18T07:02:19.508Z,10.40
2023-12-18T07:03:19.812Z,9.60
2023-12-18T07:04:19.584Z,11.30
2023-12-18T07:05:19.560Z,11.00
2023-12-18T07:06:19.563Z,10.10
2023-12-18T07:07:19.802Z,10.30
2023-12-18T07:08:19.519Z,10.20
2023-12-18T07:09:19.553Z,11.20
2023-12-18T07:10:19.587Z,10.90
2023-12-18T07:11:19.419Z,10.60
2023-12-18T07:12:19.568Z,11.60
2023-12-18T07:13:19.492Z,11.00
2023-12-18T07:14:19.365Z,10.30
2023-12-18T07:15:19.838Z,11.50
2023-12-18T07:16:19.471Z,11.20
2023-12-18T07:17:19.374Z,10.70
2023-12-18T07:18:19.826Z,11.30
2023-12-18T07:19:19.550Z,10.80
2023-12-18T07:20:19.497Z,11.50
2023-12-18T07:21:19.765Z,11.90
2023-12-18T07:22:19.447Z,10.90
2023-12-18T07:23:19.349Z,10.50
2023-12-18T07:24:19.398Z,10.20
2023-12-18T07:25:19.573Z,11.40
2023-12-18T07:26:19.242Z,12.00
2023-12-18T07:27:19.296Z,11.40
2023-12-18T07:28:19.459Z,11.80
2023-12-18T07:29:19.300Z,12.00
2023-12-18T07:30:19.421Z,12.50
2023-12-18T07:31:19.391Z,11.00
2023-12-18T07:32:19.375Z,12.00
2023-12-18T07:33:19.330Z,11.20
2023-12-18T07:34:19.421Z,12.40
2023-12-18T07:35:25.959Z,11.70
2023-12-18T07:36:19.166Z,12.70
2023-12-18T07:37:19.335Z,11.90
2023-12-18T07:38:19.103Z,12.20
2023-12-18T07:39:19.359Z,11.60
2023-12-18T07:40:19.373Z,12.60
2023-12-18T07:41:19.214Z,11.40
2023-12-18T07:42:19.291Z,12.70
2023-12-18T07:43:19.116Z,11.70
2023-12-18T07:44:19.760Z,12.20
2023-12-18T07:45:19.156Z,12.30
2023-12-18T07:46:19.210Z,12.30
2023-12-18T07:47:19.164Z,12.10
2023-12-18T07:48:19.236Z,12.40
2023-12-18T07:49:19.396Z,13.00
2023-12-18T07:50:19.180Z,10.50
2023-12-18T07:51:19.275Z,12.70
2023-12-18T07:52:19.360Z,12.50
2023-12-18T07:53:19.529Z,11.00
2023-12-18T07:54:20.643Z,11.60
2023-12-18T07:55:19.198Z,11.70
2023-12-18T07:56:19.868Z,11.70
2023-12-18T07:57:19.032Z,11.80
2023-12-18T07:58:20.767Z,12.20
2023-12-18T07:59:19.279Z,11.70
2023-12-18T08:00:19.498Z,12.70
2023-12-18T08:01:21.202Z,13.30
2023-12-18T08:02:18.936Z,12.60
2023-12-18T08:03:18.961Z,12.50
2023-12-18T08:04:19.042Z,11.70
2023-12-18T08:05:19.206Z,11.70
2023-12-18T08:06:18.845Z,12.20
2023-12-18T08:07:18.842Z,11.70
2023-12-18T08:08:18.870Z,12.40
2023-12-18T08:09:18.915Z,12.40
2023-12-18T08:10:19.977Z,11.60
2023-12-18T08:11:18.987Z,10.90
2023-12-18T08:12:18.946Z,12.20
2023-12-18T08:13:18.864Z,12.20
2023-12-18T08:14:19.666Z,11.60
2023-12-18T08:15:19.037Z,12.20
2023-12-18T08:16:19.282Z,12.00
2023-12-18T08:17:18.913Z,12.50
2023-12-18T08:18:19.408Z,11.80
2023-12-18T08:19:20.098Z,12.60
2023-12-18T08:20:19.886Z,12.00
2023-12-18T08:21:19.549Z,10.40
2023-12-18T08:22:19.336Z,12.50
2023-12-18T08:23:19.822Z,11.70
2023-12-18T08:24:19.365Z,12.30
2023-12-18T08:25:18.742Z,12.50
2023-12-18T08:26:19.924Z,12.90
2023-12-18T08:27:19.873Z,11.90
2023-12-18T08:28:20.336Z,11.50
2023-12-18T08:29:18.986Z,12.10
2023-12-18T08:30:21.200Z,11.90
2023-12-18T08:31:18.711Z,11.90
2023-12-18T08:32:20.105Z,12.10
2023-12-18T08:33:20.360Z,12.50
2023-12-18T08:34:18.713Z,12.10
2023-12-18T08:35:19.092Z,12.00
2023-12-18T08:36:18.537Z,12.40
2023-12-18T08:37:18.628Z,11.80
2023-12-18T08:38:18.873Z,12.60
2023-12-18T08:39:18.951Z,12.70
2023-12-18T08:40:18.436Z,11.30
2023-12-18T08:41:18.479Z,11.70
2023-12-18T08:42:18.453Z,12.50
2023-12-18T08:43:18.399Z,12.60
2023-12-18T08:44:18.408Z,12.30
2023-12-18T08:45:18.490Z,12.70
2023-12-18T08:46:18.554Z,12.90
2023-12-18T08:47:18.354Z,13.50
2023-12-18T08:48:18.424Z,12.00
2023-12-18T08:49:18.630Z,12.20
2023-12-18T08:50:18.348Z,12.10
2023-12-18T08:51:18.345Z,12.60
2023-12-18T08:52:18.305Z,12.30
2023-12-18T08:53:18.286Z,12.80
2023-12-18T08:54:18.299Z,13.10
2023-12-18T08:55:18.268Z,13.60
2023-12-18T08:56:18.359Z,12.80
2023-12-18T08:57:18.299Z,11.60
2023-12-18T08:58:18.231Z,12.50
2023-12-18T08:59:18.234Z,12.60
2023-12-18T09:00:18.233Z,12.20
2023-12-18T09:01:18.367Z,12.10
2023-12-18T09:02:18.233Z,12.00
2023-12-18T09:03:18.291Z,12.50
2023-12-18T09:04:18.325Z,12.40
2023-12-18T09:05:18.184Z,12.00
2023-12-18T09:06:18.193Z,12.70
2023-12-18T09:07:18.129Z,12.30
2023-12-18T09:08:18.149Z,11.60
2023-12-18T09:09:18.153Z,12.60
2023-12-18T09:10:18.098Z,12.60
2023-12-18T09:11:18.120Z,11.80
2023-12-18T09:12:18.140Z,11.80
2023-12-18T09:13:18.071Z,11.80
2023-12-18T09:14:18.085Z,12.50
2023-12-18T09:15:18.078Z,11.30
2023-12-18T09:16:18.116Z,12.20
2023-12-18T09:17:18.034Z,13.40
2023-12-18T09:18:18.184Z,12.30
2023-12-18T09:19:18.014Z,11.70
2023-12-18T09:20:18.021Z,12.40
2023-12-18T09:21:18.139Z,12.10
2023-12-18T09:22:18.346Z,12.10
2023-12-18T09:23:18.434Z,12.80
2023-12-18T09:24:18.047Z,12.20
2023-12-18T09:25:17.934Z,11.90
2023-12-18T09:26:17.970Z,11.80
2023-12-18T09:27:18.058Z,12.30
2023-12-18T09:28:17.957Z,12.10
2023-12-18T09:29:18.004Z,12.20
2023-12-18T09:30:17.971Z,12.20
2023-12-18T09:31:18.057Z,12.40
2023-12-18T09:32:18.046Z,12.50
2023-12-18T09:33:18.358Z,12.50
2023-12-18T09:34:18.012Z,11.70
2023-12-18T09:35:17.854Z,11.40
2023-12-18T09:36:17.870Z,13.40
2023-12-18T09:37:17.817Z,12.80
2023-12-18T09:38:18.006Z,11.30
2023-12-18T09:39:18.086Z,12.70
2023-12-18T09:40:17.986Z,12.40
2023-12-18T09:41:17.931Z,12.30
2023-12-18T09:42:19.440Z,11.80
2023-12-18T09:43:18.052Z,12.80
2023-12-18T09:44:18.384Z,12.30
2023-12-18T09:45:17.858Z,11.70
2023-12-18T09:46:17.986Z,12.70
2023-12-18T09:47:19.934Z,12.30
2023-12-18T09:48:19.551Z,11.60
2023-12-18T09:49:17.778Z,12.30
2023-12-18T09:50:18.886Z,11.90
2023-12-18T09:51:17.964Z,12.50
2023-12-18T09:52:17.922Z,12.30
2023-12-18T09:53:17.650Z,12.60
2023-12-18T09:54:17.638Z,12.00
2023-12-18T09:55:18.450Z,12.20
2023-12-18T09:56:18.178Z,12.30
2023-12-18T09:57:17.630Z,11.10
2023-12-18T09:58:17.587Z,12.40
2023-12-18T09:59:17.644Z,12.10
2023-12-18T10:00:17.787Z,11.10
2023-12-18T10:01:17.614Z,11.70
2023-12-18T10:02:17.589Z,12.00
2023-12-18T10:03:17.591Z,11.90
2023-12-18T10:04:17.528Z,12.80
2023-12-18T10:05:17.529Z,11.20
2023-12-18T10:06:18.710Z,11.10
2023-12-18T10:07:17.498Z,12.00
2023-12-18T10:08:17.495Z,11.80
2023-12-18T10:09:17.500Z,12.00
2023-12-18T10:10:17.453Z,10.90
2023-12-18T10:11:17.444Z,11.60
2023-12-18T10:12:17.462Z,12.40
2023-12-18T10:13:17.424Z,13.00
2023-12-18T10:14:17.446Z,12.00
2023-12-18T10:15:17.452Z,11.70
2023-12-18T10:16:17.399Z,12.10
2023-12-18T10:17:17.384Z,12.80
2023-12-18T10:18:18.552Z,11.40
2023-12-18T10:19:17.432Z,12.10
2023-12-18T10:20:17.369Z,11.80
2023-12-18T10:21:17.359Z,11.90
2023-12-18T10:22:17.317Z,10.80
2023-12-18T10:23:17.325Z,11.40
2023-12-18T10:24:17.925Z,9.50
2023-12-18T10:25:17.296Z,12.90
2023-12-18T10:26:17.312Z,10.60
2023-12-18T10:27:17.283Z,11.90
2023-12-18T10:28:17.261Z,11.80
2023-12-18T10:29:17.250Z,11.90
2023-12-18T10:30:19.079Z,11.70
2023-12-18T10:31:17.271Z,11.60
2023-12-18T10:32:17.254Z,12.30
2023-12-18T10:33:17.368Z,12.60
2023-12-18T10:34:17.275Z,11.10
2023-12-18T10:35:17.178Z,10.70
2023-12-18T10:36:17.482Z,11.30
2023-12-18T10:37:17.222Z,11.30
2023-12-18T10:38:17.175Z,11.30
2023-12-18T10:39:17.168Z,11.70
2023-12-18T10:40:17.150Z,12.00
2023-12-18T10:41:17.113Z,12.50
2023-12-18T10:42:17.125Z,10.90
2023-12-18T10:43:17.105Z,11.40
2023-12-18T10:44:17.108Z,10.50
2023-12-18T10:45:17.098Z,10.90
2023-12-18T10:46:17.065Z,11.80
2023-12-18T10:47:17.052Z,11.80
2023-12-18T10:48:17.060Z,12.40
2023-12-18T10:49:17.117Z,12.00
2023-12-18T10:50:17.047Z,11.70
2023-12-18T10:51:17.035Z,11.90
2023-12-18T10:52:17.000Z,11.80
2023-12-18T10:53:17.004Z,11.10
2023-12-18T10:54:16.986Z,11.90
2023-12-18T10:55:16.979Z,12.00
2023-12-18T10:56:16.989Z,11.70
2023-12-18T10:57:16.973Z,11.00
2023-12-18T10:58:16.930Z,11.70
2023-12-18T10:59:16.926Z,11.00
2023-12-18T11:00:16.986Z,11.80
2023-12-18T11:01:17.128Z,12.20
2023-12-18T11:02:16.914Z,11.70
2023-12-18T11:03:17.026Z,11.90
2023-12-18T11:04:16.960Z,12.70
2023-12-18T11:05:16.896Z,11.50
2023-12-18T11:06:18.074Z,12.20
2023-12-18T11:07:16.835Z,12.20
2023-12-18T11:08:16.893Z,11.00
2023-12-18T11:09:16.830Z,11.30
2023-12-18T11:10:16.804Z,11.40
2023-12-18T11:11:16.792Z,12.30
2023-12-18T11:12:16.788Z,11.50
2023-12-18T11:13:16.768Z,12.20
2023-12-18T11:14:16.788Z,12.40
2023-12-18T11:15:16.751Z,11.50
2023-12-18T11:16:16.755Z,11.80
2023-12-18T11:17:16.727Z,10.80
2023-12-18T11:18:16.860Z,11.70
2023-12-18T11:19:23.142Z,10.90
2023-12-18T11:20:16.773Z,12.00
2023-12-18T11:21:16.695Z,10.20
2023-12-18T11:22:16.681Z,12.00
2023-12-18T11:23:16.663Z,11.40
2023-12-18T11:24:16.664Z,11.30
2023-12-18T11:25:16.640Z,10.70
2023-12-18T11:26:16.671Z,11.20
2023-12-18T11:27:16.641Z,11.80
2023-12-18T11:28:16.612Z,10.90
2023-12-18T11:29:16.603Z,10.70
2023-12-18T11:30:16.651Z,10.90
2023-12-18T11:31:16.619Z,10.70
2023-12-18T11:32:16.588Z,10.50
2023-12-18T11:33:16.861Z,11.20
2023-12-18T11:34:16.666Z,11.90
2023-12-18T11:35:16.735Z,11.30
2023-12-18T11:36:16.554Z,11.40
2023-12-18T11:37:16.517Z,11.70
2023-12-18T11:38:16.527Z,11.20
2023-12-18T11:39:16.506Z,10.80
2023-12-18T11:40:16.489Z,11.70
2023-12-18T11:41:16.468Z,11.90
2023-12-18T11:42:16.477Z,11.80
2023-12-18T11:43:16.456Z,11.20
2023-12-18T11:44:16.479Z,11.70
2023-12-18T11:45:16.480Z,11.30
2023-12-18T11:46:18.493Z,11.30
2023-12-18T11:47:16.412Z,10.90
2023-12-18T11:48:16.704Z,11.70
2023-12-18T11:49:16.516Z,10.70
2023-12-18T11:50:16.468Z,11.60
2023-12-18T11:51:16.393Z,11.70
2023-12-18T11:52:16.440Z,11.70
2023-12-18T11:53:16.349Z,11.70
2023-12-18T11:54:16.345Z,11.40
2023-12-18T11:55:16.374Z,11.40
2023-12-18T11:56:16.343Z,11.20
2023-12-18T11:57:16.346Z,11.10
2023-12-18T11:58:16.282Z,11.30
2023-12-18T11:59:16.320Z,11.60
2023-12-18T12:00:16.299Z,12.10
2023-12-18T12:01:16.408Z,11.00
2023-12-18T12:02:16.273Z,11.00
2023-12-18T12:03:16.266Z,11.60
2023-12-18T12:04:16.283Z,10.40
2023-12-18T12:05:16.296Z,11.30
2023-12-18T12:06:16.414Z,11.50
2023-12-18T12:07:16.271Z,11.90
2023-12-18T12:08:16.222Z,11.00
2023-12-18T12:09:16.241Z,11.30
2023-12-18T12:10:16.262Z,10.60
2023-12-18T12:11:16.160Z,11.50
2023-12-18T12:12:16.174Z,11.30
2023-12-18T12:13:16.152Z,11.50
2023-12-18T12:14:16.163Z,10.90
2023-12-18T12:15:16.221Z,11.20
2023-12-18T12:16:16.101Z,11.60
2023-12-18T12:17:16.093Z,10.60
2023-12-18T12:18:16.161Z,10.70
2023-12-18T12:19:16.194Z,10.70
2023-12-18T12:20:16.098Z,10.60
2023-12-18T12:21:16.075Z,10.90
2023-12-18T12:22:16.056Z,11.60
2023-12-18T12:23:16.021Z,10.80
2023-12-18T12:24:16.113Z,10.40
2023-12-18T12:25:16.002Z,11.40
2023-12-18T12:26:16.029Z,10.80
2023-12-18T12:27:16.136Z,10.70
2023-12-18T12:28:15.984Z,11.00
2023-12-18T12:29:15.966Z,11.20
2023-12-18T12:30:15.994Z,10.80
2023-12-18T12:31:16.047Z,9.90
2023-12-18T12:32:16.353Z,10.10
2023-12-18T12:33:16.030Z,11.20
2023-12-18T12:34:16.148Z,10.10
2023-12-18T12:35:15.988Z,10.80
2023-12-18T12:36:15.903Z,10.70
2023-12-18T12:37:15.960Z,9.80
2023-12-18T12:38:15.891Z,10.40
2023-12-18T12:39:15.900Z,10.70
2023-12-18T12:40:15.852Z,10.00
2023-12-18T12:41:15.837Z,10.90
2023-12-18T12:42:15.850Z,10.10
2023-12-18T12:43:15.811Z,10.70
2023-12-18T12:44:15.840Z,10.20
2023-12-18T12:45:15.805Z,9.70
2023-12-18T12:46:20.417Z,9.50
2023-12-18T12:47:15.789Z,10.20
2023-12-18T12:48:16.008Z,9.90
2023-12-18T12:49:15.870Z,9.60
2023-12-18T12:50:15.758Z,10.00
2023-12-18T12:51:15.819Z,9.90
2023-12-18T12:52:15.716Z,8.80
2023-12-18T12:53:15.703Z,10.10
2023-12-18T12:54:15.730Z,10.30
2023-12-18T12:55:15.707Z,10.20
2023-12-18T12:56:15.706Z,9.40
2023-12-18T12:57:15.700Z,9.50
2023-12-18T12:58:15.724Z,10.20
2023-12-18T12:59:15.648Z,9.50
2023-12-18T13:00:15.677Z,9.30
2023-12-18T13:01:15.710Z,8.90
2023-12-18T13:02:15.641Z,10.00
2023-12-18T13:03:15.675Z,9.30
2023-12-18T13:04:15.668Z,9.60
2023-12-18T13:05:15.687Z,9.40
2023-12-18T13:06:15.621Z,9.00